createdAt,value
2019-03-24T00:01:48.060Z,71.17
2019-03-24T00:04:17.984Z,88.70
2019-03-24T00:06:47.886Z,77.40
2019-03-24T00:09:17.620Z,65.30
2019-03-24T00:11:47.621Z,68.03
2019-03-24T00:14:17.470Z,57.90
2019-03-24T00:16:47.312Z,57.77
2019-03-24T00:19:17.280Z,92.17
2019-03-24T00:21:47.160Z,62.23
2019-03-24T00:24:16.993Z,61.40
2019-03-24T00:26:46.851Z,77.37
2019-03-24T00:29:16.706Z,71.30
2019-03-24T00:31:46.553Z,66.83
2019-03-24T00:34:16.406Z,61.07
2019-03-24T00:36:46.298Z,59.00
2019-03-24T00:39:16.166Z,61.30
2019-03-24T00:41:46.021Z,64.93
2019-03-24T00:44:16.040Z,62.53
2019-03-24T00:46:45.878Z,85.77
2019-03-24T00:49:15.753Z,51.13
2019-03-24T00:51:45.607Z,62.37
2019-03-24T00:54:15.452Z,65.33
2019-03-24T00:56:45.379Z,62.87
2019-03-24T00:59:15.249Z,64.43
2019-03-24T01:01:45.004Z,63.50
2019-03-24T01:04:14.853Z,55.63
2019-03-24T01:06:44.735Z,101.27
2019-03-24T01:09:14.639Z,87.03
2019-03-24T01:11:44.479Z,82.80
2019-03-24T01:14:14.336Z,85.43
2019-03-24T01:16:44.170Z,82.57
2019-03-24T01:19:14.045Z,67.70
2019-03-24T01:21:43.835Z,77.47
2019-03-24T01:24:13.678Z,90.73
2019-03-24T01:26:43.503Z,91.40
2019-03-24T01:29:13.316Z,96.53
2019-03-24T01:31:43.153Z,66.60
2019-03-24T01:34:13.075Z,69.37
2019-03-24T01:36:42.913Z,68.50
2019-03-24T01:39:12.767Z,56.83
2019-03-24T01:41:42.529Z,62.50
2019-03-24T01:44:12.345Z,71.07
2019-03-24T01:46:42.217Z,101.00
2019-03-24T01:49:12.066Z,104.20
2019-03-24T01:51:41.862Z,72.93
2019-03-24T01:54:11.679Z,63.03
2019-03-24T01:56:41.537Z,64.57
2019-03-24T01:59:11.498Z,68.67
2019-03-24T02:01:41.349Z,51.73
2019-03-24T02:04:11.118Z,55.27
2019-03-24T02:06:40.998Z,54.90
2019-03-24T02:09:10.937Z,52.87
2019-03-24T02:11:40.822Z,55.83
2019-03-24T02:14:10.653Z,54.53
2019-03-24T02:16:40.942Z,62.37
2019-03-24T02:19:10.785Z,59.97
2019-03-24T02:21:40.579Z,81.07
2019-03-24T02:24:10.373Z,74.63
2019-03-24T02:26:40.484Z,87.83
2019-03-24T02:29:10.300Z,80.63
2019-03-24T02:31:40.132Z,88.20
2019-03-24T02:34:10.050Z,66.60
2019-03-24T02:36:39.960Z,57.87
2019-03-24T02:39:09.761Z,58.07
2019-03-24T02:41:39.600Z,99.87
2019-03-24T02:44:09.433Z,55.03
2019-03-24T02:46:39.428Z,79.87
2019-03-24T02:49:09.249Z,63.40
2019-03-24T02:51:39.122Z,51.50
2019-03-24T02:54:08.993Z,75.87
2019-03-24T02:56:38.735Z,57.50
2019-03-24T02:59:08.601Z,78.07
2019-03-24T03:01:38.475Z,88.97
2019-03-24T03:04:08.471Z,87.53
2019-03-24T03:06:38.193Z,79.50
2019-03-24T03:09:08.171Z,68.70
2019-03-24T03:11:38.195Z,73.00
2019-03-24T03:14:07.985Z,66.07
2019-03-24T03:16:39.272Z,95.93
2019-03-24T03:19:09.351Z,95.87
2019-03-24T03:21:39.241Z,67.53
2019-03-24T03:24:09.099Z,70.90
2019-03-24T03:26:38.822Z,93.87
2019-03-24T03:29:08.668Z,66.30
2019-03-24T03:31:38.465Z,94.63
2019-03-24T03:34:08.455Z,75.07
2019-03-24T03:36:38.269Z,82.77
2019-03-24T03:39:08.475Z,96.93
2019-03-24T03:41:38.480Z,93.87
2019-03-24T03:44:08.302Z,61.63
2019-03-24T03:46:51.560Z,81.13
2019-03-24T03:49:09.713Z,85.50
2019-03-24T03:51:39.584Z,83.43
2019-03-24T03:54:09.484Z,66.10
2019-03-24T03:56:39.319Z,64.37
2019-03-24T03:59:09.182Z,90.73
2019-03-24T04:01:39.028Z,98.60
2019-03-24T04:04:08.961Z,75.90
2019-03-24T04:06:38.679Z,67.13
2019-03-24T04:09:08.954Z,54.73
2019-03-24T04:11:38.833Z,65.73
2019-03-24T04:14:08.630Z,94.53
2019-03-24T04:16:38.411Z,98.57
2019-03-24T04:19:08.293Z,85.77
2019-03-24T04:21:38.172Z,74.67
2019-03-24T04:24:08.037Z,79.70
2019-03-24T04:26:37.860Z,85.73
2019-03-24T04:29:07.653Z,65.00
2019-03-24T04:31:37.573Z,62.97
2019-03-24T04:34:07.305Z,85.47
2019-03-24T04:36:37.302Z,73.00
2019-03-24T04:39:07.558Z,81.13
2019-03-24T04:41:37.423Z,65.83
2019-03-24T04:44:07.201Z,72.17
2019-03-24T04:46:37.026Z,80.37
2019-03-24T04:49:06.928Z,80.47
2019-03-24T04:51:36.788Z,74.60
2019-03-24T04:54:06.577Z,70.97
2019-03-24T04:56:36.494Z,70.70
2019-03-24T04:59:06.330Z,85.27
2019-03-24T05:01:36.162Z,87.83
2019-03-24T05:04:05.990Z,85.40
2019-03-24T05:06:36.096Z,79.97
2019-03-24T05:09:06.632Z,66.63
2019-03-24T05:11:36.507Z,57.77
2019-03-24T05:14:06.377Z,60.77
2019-03-24T05:16:36.295Z,79.90
2019-03-24T05:19:06.101Z,82.37
2019-03-24T05:21:35.933Z,93.83
2019-03-24T05:24:05.800Z,88.63
2019-03-24T05:26:35.650Z,79.33
2019-03-24T05:29:05.569Z,82.10
2019-03-24T05:31:35.445Z,59.33
2019-03-24T05:34:05.211Z,82.57
2019-03-24T05:36:35.048Z,92.93
2019-03-24T05:39:06.176Z,78.43
2019-03-24T05:41:36.016Z,84.07
2019-03-24T05:44:05.870Z,86.97
2019-03-24T05:46:35.759Z,87.90
2019-03-24T05:49:05.569Z,98.43
2019-03-24T05:51:35.428Z,74.43
2019-03-24T05:54:05.312Z,86.53
2019-03-24T05:56:35.067Z,87.80
2019-03-24T05:59:04.852Z,80.50
2019-03-24T06:01:34.673Z,96.57
2019-03-24T06:04:04.556Z,66.00
2019-03-24T06:06:34.337Z,58.50
2019-03-24T06:09:05.528Z,56.57
2019-03-24T06:11:35.391Z,51.57
2019-03-24T06:14:05.252Z,80.73
2019-03-24T06:16:35.122Z,76.40
2019-03-24T06:19:04.893Z,60.30
2019-03-24T06:21:35.510Z,50.63
2019-03-24T06:24:05.665Z,41.23
2019-03-24T06:26:35.460Z,75.13
2019-03-24T06:29:05.622Z,72.57
2019-03-24T06:31:35.593Z,77.20
2019-03-24T06:34:05.575Z,49.37
2019-03-24T06:36:35.346Z,78.50
2019-03-24T06:39:06.669Z,62.63
2019-03-24T06:41:36.658Z,48.03
2019-03-24T06:44:06.486Z,46.53
2019-03-24T06:46:36.567Z,60.87
2019-03-24T06:49:06.297Z,40.10
2019-03-24T06:51:36.021Z,39.83
2019-03-24T06:54:05.766Z,47.90
2019-03-24T06:56:35.690Z,44.27
2019-03-24T06:59:05.596Z,34.77
2019-03-24T07:01:35.527Z,43.07
2019-03-24T07:04:05.248Z,43.50
2019-03-24T07:06:35.127Z,58.27
2019-03-24T07:09:06.074Z,57.80
2019-03-24T07:11:35.812Z,43.80
2019-03-24T07:14:05.726Z,59.30
2019-03-24T07:16:35.551Z,50.07
2019-03-24T07:19:05.853Z,61.47
2019-03-24T07:21:35.736Z,48.20
2019-03-24T07:24:05.601Z,48.83
2019-03-24T07:26:35.386Z,44.57
2019-03-24T07:29:05.184Z,57.77
2019-03-24T07:31:35.121Z,61.23
2019-03-24T07:34:05.007Z,46.83
2019-03-24T07:36:34.860Z,52.87
2019-03-24T07:39:05.777Z,40.80
2019-03-24T07:41:35.605Z,48.03
2019-03-24T07:44:05.631Z,68.70
2019-03-24T07:46:35.636Z,61.27
2019-03-24T07:49:05.536Z,45.40
2019-03-24T07:51:35.471Z,64.10
2019-03-24T07:54:05.347Z,66.60
2019-03-24T07:56:35.202Z,73.60
2019-03-24T07:59:05.548Z,71.07
2019-03-24T08:01:35.426Z,59.67
2019-03-24T08:04:06.068Z,72.03
2019-03-24T08:06:35.963Z,70.83
2019-03-24T08:09:06.822Z,79.80
2019-03-24T08:11:36.627Z,75.63
2019-03-24T08:14:06.558Z,81.17
2019-03-24T08:16:36.416Z,80.20
2019-03-24T08:19:06.261Z,81.27
2019-03-24T08:21:36.230Z,90.77
2019-03-24T08:24:06.126Z,70.67
2019-03-24T08:26:35.919Z,85.77
2019-03-24T08:29:05.835Z,84.33
2019-03-24T08:31:35.667Z,76.43
2019-03-24T08:34:05.575Z,71.23
2019-03-24T08:36:35.400Z,87.07
2019-03-24T08:39:06.214Z,73.00
2019-03-24T08:41:36.018Z,83.60
2019-03-24T08:44:06.016Z,84.03
2019-03-24T08:46:35.945Z,76.73
2019-03-24T08:49:05.813Z,83.73
2019-03-24T08:51:35.605Z,80.57
2019-03-24T08:54:06.345Z,77.27
2019-03-24T08:56:36.220Z,82.37
2019-03-24T08:59:06.166Z,67.57
2019-03-24T09:01:36.035Z,72.20
2019-03-24T09:04:05.991Z,82.90
2019-03-24T09:06:35.853Z,82.33
2019-03-24T09:09:07.449Z,76.53
2019-03-24T09:11:38.307Z,76.30
2019-03-24T09:14:08.204Z,65.83
2019-03-24T09:16:38.093Z,73.10
2019-03-24T09:19:08.067Z,76.53
2019-03-24T09:21:37.920Z,73.00
2019-03-24T09:24:07.745Z,73.80
2019-03-24T09:26:37.773Z,72.97
2019-03-24T09:29:07.677Z,81.30
2019-03-24T09:31:37.777Z,78.80
2019-03-24T09:34:07.643Z,83.53
2019-03-24T09:36:37.645Z,78.77
2019-03-24T09:39:08.587Z,75.03
2019-03-24T09:41:38.977Z,80.97
2019-03-24T09:44:08.775Z,90.00
2019-03-24T09:46:38.681Z,90.17
2019-03-24T09:49:08.516Z,80.60
2019-03-24T09:51:38.687Z,90.33
2019-03-24T09:54:08.871Z,83.40
2019-03-24T09:56:38.891Z,70.27
2019-03-24T09:59:08.721Z,88.90
2019-03-24T10:01:38.594Z,83.10
2019-03-24T10:04:08.566Z,78.73
2019-03-24T10:06:38.424Z,83.90
2019-03-24T10:09:08.235Z,84.47
2019-03-24T10:11:38.102Z,79.40
2019-03-24T10:14:08.001Z,79.47
2019-03-24T10:16:37.904Z,85.93
2019-03-24T10:19:13.895Z,84.03
2019-03-24T10:21:39.390Z,81.30
2019-03-24T10:24:09.219Z,80.40
2019-03-24T10:26:39.585Z,83.00
2019-03-24T10:29:09.908Z,86.30
2019-03-24T10:31:42.506Z,86.43
2019-03-24T10:34:11.775Z,69.53
2019-03-24T10:36:42.154Z,75.03
2019-03-24T10:39:15.064Z,73.60
2019-03-24T10:41:45.299Z,83.00
2019-03-24T10:44:15.143Z,76.27
2019-03-24T10:46:45.304Z,74.07
2019-03-24T10:49:24.499Z,78.27
2019-03-24T10:51:47.262Z,78.30
2019-03-24T10:54:18.210Z,75.47
2019-03-24T10:56:48.693Z,73.13
2019-03-24T10:59:18.607Z,74.90
2019-03-24T11:01:48.433Z,71.00
2019-03-24T11:04:18.402Z,70.53
2019-03-24T11:06:48.233Z,72.27
2019-03-24T11:09:18.106Z,73.93
2019-03-24T11:11:47.990Z,71.63
2019-03-24T11:14:17.844Z,75.83
2019-03-24T11:16:47.684Z,70.03
2019-03-24T11:19:17.654Z,70.10
2019-03-24T11:21:47.505Z,70.87
2019-03-24T11:24:17.997Z,69.43
2019-03-24T11:26:47.828Z,71.97
2019-03-24T11:29:17.736Z,68.13
2019-03-24T11:31:47.566Z,65.90
2019-03-24T11:34:17.365Z,67.07
2019-03-24T11:36:47.346Z,70.63
2019-03-24T11:39:17.524Z,66.80
2019-03-24T11:41:47.414Z,67.40
2019-03-24T11:44:17.338Z,65.03
2019-03-24T11:46:47.262Z,68.47
2019-03-24T11:49:20.148Z,65.50
2019-03-24T11:51:50.385Z,64.27
2019-03-24T11:54:20.393Z,65.50
2019-03-24T11:56:50.240Z,62.50
2019-03-24T11:59:20.148Z,62.03
2019-03-24T12:01:50.086Z,62.37
2019-03-24T12:04:20.117Z,58.27
2019-03-24T12:06:50.058Z,62.30
2019-03-24T12:09:19.914Z,62.00
2019-03-24T12:11:49.791Z,65.90
2019-03-24T12:14:19.717Z,64.63
2019-03-24T12:16:49.850Z,65.17
2019-03-24T12:19:25.274Z,64.17
2019-03-24T12:21:55.214Z,63.00
2019-03-24T12:24:25.093Z,54.93
2019-03-24T12:26:55.039Z,63.20
2019-03-24T12:29:24.888Z,61.70
2019-03-24T12:31:54.740Z,63.73
2019-03-24T12:34:24.616Z,60.63
2019-03-24T12:36:54.498Z,62.13
2019-03-24T12:39:24.616Z,62.30
2019-03-24T12:41:54.470Z,63.13
2019-03-24T12:44:24.324Z,69.33
2019-03-24T12:46:54.186Z,60.00
2019-03-24T12:49:24.007Z,65.97
2019-03-24T12:51:53.959Z,71.53
2019-03-24T12:54:25.547Z,67.83
2019-03-24T12:56:55.522Z,63.23
2019-03-24T12:59:25.405Z,64.53
2019-03-24T13:01:55.318Z,64.53
2019-03-24T13:04:25.222Z,69.27
2019-03-24T13:06:55.106Z,66.00
2019-03-24T13:09:25.151Z,56.90
2019-03-24T13:11:55.297Z,63.87
2019-03-24T13:14:25.197Z,60.00
2019-03-24T13:16:55.150Z,64.03
2019-03-24T13:19:25.108Z,54.40
2019-03-24T13:21:55.321Z,51.97
2019-03-24T13:24:25.316Z,58.37
2019-03-24T13:26:55.250Z,54.07
2019-03-24T13:29:25.246Z,56.50
2019-03-24T13:31:55.136Z,55.53
2019-03-24T13:34:25.034Z,57.20
2019-03-24T13:36:54.938Z,57.77
2019-03-24T13:39:24.954Z,56.80
2019-03-24T13:41:54.782Z,49.27
2019-03-24T13:44:24.872Z,63.43
2019-03-24T13:46:54.798Z,53.10
2019-03-24T13:49:24.874Z,56.17
2019-03-24T13:51:56.305Z,56.03
2019-03-24T13:54:26.259Z,53.40
2019-03-24T13:56:56.181Z,56.87
2019-03-24T13:59:26.060Z,56.10
2019-03-24T14:01:56.116Z,49.47
2019-03-24T14:04:26.024Z,58.23
2019-03-24T14:06:56.730Z,52.73
2019-03-24T14:09:26.836Z,54.87
2019-03-24T14:11:56.752Z,57.17
2019-03-24T14:14:26.520Z,56.50
2019-03-24T14:16:56.395Z,40.80
2019-03-24T14:19:26.327Z,52.93
2019-03-24T14:21:56.248Z,52.47
2019-03-24T14:24:26.059Z,57.10
2019-03-24T14:26:56.099Z,54.03
2019-03-24T14:29:27.211Z,53.53
2019-03-24T14:31:57.538Z,53.07
2019-03-24T14:34:27.457Z,55.13
2019-03-24T14:36:57.356Z,55.33
2019-03-24T14:39:27.332Z,53.47
2019-03-24T14:41:57.230Z,55.07
2019-03-24T14:44:27.217Z,53.93
2019-03-24T14:46:57.113Z,44.13
2019-03-24T14:49:27.132Z,56.70
2019-03-24T14:51:56.991Z,56.10
2019-03-24T14:54:26.953Z,54.90
2019-03-24T14:56:56.838Z,56.50
2019-03-24T14:59:26.924Z,62.50
2019-03-24T15:01:56.857Z,56.23
2019-03-24T15:04:26.694Z,56.77
2019-03-24T15:06:56.556Z,57.77
2019-03-24T15:09:26.464Z,58.93
2019-03-24T15:11:56.380Z,59.10
2019-03-24T15:14:26.462Z,57.13
2019-03-24T15:16:56.631Z,57.40
2019-03-24T15:19:26.476Z,60.50
2019-03-24T15:21:56.318Z,58.53
2019-03-24T15:24:26.275Z,54.47
2019-03-24T15:26:56.189Z,50.07
2019-03-24T15:29:26.211Z,46.80
2019-03-24T15:31:56.114Z,51.20
2019-03-24T15:34:26.104Z,60.47
2019-03-24T15:36:55.967Z,58.23
2019-03-24T15:39:26.086Z,48.70
2019-03-24T15:41:55.956Z,58.53
2019-03-24T15:44:25.883Z,55.13
2019-03-24T15:46:56.025Z,46.37
2019-03-24T15:49:25.936Z,57.67
2019-03-24T15:51:55.867Z,58.43
2019-03-24T15:54:25.842Z,59.53
2019-03-24T15:56:55.924Z,45.10
2019-03-24T15:59:26.912Z,55.67
2019-03-24T16:01:57.023Z,51.37
2019-03-24T16:04:26.965Z,52.80
2019-03-24T16:06:56.808Z,57.50
2019-03-24T16:09:26.889Z,56.03
2019-03-24T16:11:57.027Z,53.30
2019-03-24T16:14:27.003Z,56.97
2019-03-24T16:16:57.135Z,54.30
2019-03-24T16:19:27.053Z,51.70
2019-03-24T16:21:57.019Z,56.97
2019-03-24T16:24:26.884Z,55.97
2019-03-24T16:26:56.818Z,57.40
2019-03-24T16:29:26.766Z,54.10
2019-03-24T16:31:56.684Z,55.23
2019-03-24T16:34:27.116Z,52.27
2019-03-24T16:36:56.983Z,49.97
2019-03-24T16:39:27.014Z,51.63
2019-03-24T16:41:56.968Z,49.77
2019-03-24T16:44:26.840Z,44.87
2019-03-24T16:46:56.679Z,53.37
2019-03-24T16:49:26.821Z,49.50
2019-03-24T16:51:56.684Z,41.37
2019-03-24T16:54:26.563Z,49.87
2019-03-24T16:56:56.717Z,41.27
2019-03-24T16:59:26.576Z,51.17
2019-03-24T17:01:56.354Z,53.53
2019-03-24T17:04:26.295Z,65.40
2019-03-24T17:06:56.584Z,55.93
2019-03-24T17:09:26.823Z,52.70
2019-03-24T17:11:57.112Z,45.60
2019-03-24T17:14:27.559Z,50.90
2019-03-24T17:16:57.746Z,35.50
2019-03-24T17:19:27.714Z,54.70
2019-03-24T17:21:57.614Z,51.23
2019-03-24T17:24:28.546Z,47.73
2019-03-24T17:26:58.474Z,51.10
2019-03-24T17:29:28.395Z,39.43
2019-03-24T17:31:58.393Z,49.93
2019-03-24T17:34:28.315Z,39.63
2019-03-24T17:36:58.193Z,43.20
2019-03-24T17:39:28.195Z,42.50
2019-03-24T17:41:58.274Z,57.57
2019-03-24T17:44:28.144Z,39.50
2019-03-24T17:46:58.259Z,54.53
2019-03-24T17:49:28.079Z,39.50
2019-03-24T17:52:00.987Z,40.33
2019-03-24T17:54:29.962Z,53.40
2019-03-24T17:57:00.089Z,42.93
2019-03-24T17:59:30.233Z,49.07
2019-03-24T18:02:00.119Z,35.73
2019-03-24T18:04:30.134Z,49.77
2019-03-24T18:07:00.029Z,35.53
2019-03-24T18:09:29.980Z,29.07
2019-03-24T18:11:59.897Z,39.37
2019-03-24T18:14:29.749Z,39.73
2019-03-24T18:16:59.602Z,37.60
2019-03-24T18:19:29.593Z,43.40
2019-03-24T18:21:59.808Z,33.00
2019-03-24T18:24:29.699Z,31.23
2019-03-24T18:26:59.883Z,26.57
2019-03-24T18:29:29.868Z,38.00
2019-03-24T18:31:59.870Z,38.23
2019-03-24T18:34:29.958Z,39.77
2019-03-24T18:36:59.990Z,49.30
2019-03-24T18:39:29.861Z,50.77
2019-03-24T18:41:59.758Z,38.47
2019-03-24T18:44:29.669Z,34.37
2019-03-24T18:47:00.174Z,47.90
2019-03-24T18:49:30.107Z,48.60
2019-03-24T18:51:59.979Z,37.40
2019-03-24T18:54:30.042Z,45.30
2019-03-24T18:56:59.905Z,41.13
2019-03-24T18:59:29.788Z,31.70
2019-03-24T19:01:59.986Z,36.23
2019-03-24T19:04:29.891Z,36.53
2019-03-24T19:07:00.020Z,39.20
2019-03-24T19:09:30.003Z,38.77
2019-03-24T19:11:59.827Z,37.50
2019-03-24T19:14:30.047Z,42.53
2019-03-24T19:17:00.066Z,30.87
2019-03-24T19:19:30.214Z,43.73
2019-03-24T19:22:00.328Z,43.40
2019-03-24T19:24:30.149Z,42.87
2019-03-24T19:27:00.075Z,30.30
2019-03-24T19:29:29.878Z,27.37
2019-03-24T19:31:59.879Z,29.37
2019-03-24T19:34:29.913Z,45.93
2019-03-24T19:37:00.216Z,30.97
2019-03-24T19:39:31.465Z,26.30
2019-03-24T19:42:01.401Z,33.70
2019-03-24T19:44:31.739Z,45.10
2019-03-24T19:47:01.918Z,26.90
2019-03-24T19:49:31.793Z,35.60
2019-03-24T19:52:01.716Z,41.57
2019-03-24T19:54:31.910Z,41.50
2019-03-24T19:57:02.951Z,43.73
2019-03-24T19:59:32.998Z,41.70
2019-03-24T20:02:02.904Z,41.27
2019-03-24T20:04:32.860Z,33.40
2019-03-24T20:07:02.835Z,30.17
2019-03-24T20:09:32.932Z,33.57
2019-03-24T20:12:03.040Z,29.30
2019-03-24T20:14:32.967Z,39.43
2019-03-24T20:17:02.918Z,29.73
2019-03-24T20:19:32.808Z,29.90
2019-03-24T20:22:02.706Z,24.47
2019-03-24T20:24:32.590Z,30.40
2019-03-24T20:27:02.607Z,30.83
2019-03-24T20:29:32.630Z,37.87
2019-03-24T20:32:02.502Z,30.70
2019-03-24T20:34:32.376Z,32.20
2019-03-24T20:37:02.322Z,36.63
2019-03-24T20:39:32.249Z,39.20
2019-03-24T20:42:02.125Z,45.37
2019-03-24T20:44:32.014Z,30.83
2019-03-24T20:47:02.086Z,32.03
2019-03-24T20:49:32.030Z,37.30
2019-03-24T20:52:02.142Z,27.30
2019-03-24T20:54:32.092Z,23.33
2019-03-24T20:57:01.854Z,39.53
2019-03-24T20:59:31.924Z,37.27
2019-03-24T21:02:01.693Z,37.63
2019-03-24T21:04:31.826Z,37.90
2019-03-24T21:07:01.670Z,36.57
2019-03-24T21:09:31.495Z,38.17
2019-03-24T21:12:01.422Z,38.90
2019-03-24T21:14:31.362Z,41.63
2019-03-24T21:17:01.338Z,32.60
2019-03-24T21:19:31.273Z,37.63
2019-03-24T21:22:01.210Z,39.20
2019-03-24T21:24:31.383Z,36.63
2019-03-24T21:27:01.310Z,29.17
2019-03-24T21:29:31.323Z,32.67
2019-03-24T21:32:01.224Z,35.50
2019-03-24T21:34:31.245Z,32.23
2019-03-24T21:37:01.115Z,31.03
2019-03-24T21:39:31.156Z,31.90
2019-03-24T21:42:01.312Z,31.53
2019-03-24T21:44:31.162Z,31.77
2019-03-24T21:47:01.183Z,31.93
2019-03-24T21:49:31.082Z,29.17
2019-03-24T21:52:01.096Z,33.40
2019-03-24T21:54:30.989Z,28.33
2019-03-24T21:57:01.240Z,33.80
2019-03-24T21:59:31.335Z,31.17
2019-03-24T22:02:01.318Z,21.90
2019-03-24T22:04:31.195Z,30.30
2019-03-24T22:07:01.345Z,20.00
2019-03-24T22:09:31.251Z,23.40
2019-03-24T22:12:01.120Z,26.50
2019-03-24T22:14:31.053Z,27.50
2019-03-24T22:17:01.282Z,28.23
2019-03-24T22:19:31.234Z,27.57
2019-03-24T22:22:01.077Z,28.90
2019-03-24T22:24:30.969Z,27.53
2019-03-24T22:27:01.052Z,21.43
2019-03-24T22:29:31.101Z,24.53
2019-03-24T22:32:00.931Z,23.43
2019-03-24T22:34:30.836Z,27.73
2019-03-24T22:37:00.676Z,23.13
2019-03-24T22:39:30.527Z,23.07
2019-03-24T22:42:00.483Z,24.17
2019-03-24T22:44:30.362Z,27.97
2019-03-24T22:47:00.474Z,26.63
2019-03-24T22:49:30.363Z,25.83
2019-03-24T22:52:07.179Z,25.53
2019-03-24T22:54:31.764Z,26.80
2019-03-24T22:57:01.507Z,26.77
2019-03-24T22:59:31.470Z,29.87
2019-03-24T23:02:01.634Z,26.93
2019-03-24T23:04:31.508Z,29.97
2019-03-24T23:07:01.384Z,25.57
2019-03-24T23:09:31.418Z,25.53
2019-03-24T23:12:01.567Z,31.77
2019-03-24T23:14:31.337Z,27.00
2019-03-24T23:17:01.162Z,23.20
2019-03-24T23:19:31.181Z,29.33
2019-03-24T23:22:01.044Z,30.47
2019-03-24T23:24:31.001Z,29.87
2019-03-24T23:27:00.892Z,27.17
2019-03-24T23:29:31.021Z,27.87
2019-03-24T23:32:00.850Z,31.47
2019-03-24T23:34:30.873Z,25.60
2019-03-24T23:37:00.820Z,26.33
2019-03-24T23:39:30.925Z,30.37
2019-03-24T23:42:01.035Z,29.93
2019-03-24T23:44:30.948Z,24.87
2019-03-24T23:47:00.803Z,27.67
2019-03-24T23:49:30.785Z,21.83
2019-03-24T23:52:00.934Z,22.90
2019-03-24T23:54:31.077Z,23.57
2019-03-24T23:57:01.289Z,24.80
2019-03-24T23:59:31.466Z,18.67
